Time;durP1;ratioP1;P1;durP2;ratioP2;P2;SDS_P1;SDS_P2;PMS_P1;PMS_P2;Temp;Humidity;BMP_temperature;BMP_pressure;BME280_temperature;BME280_humidity;BME280_pressure;Samples;Min_cycle;Max_cycle;Signal;HPM_P1;HPM_P2
2021/07/01 00:00:50;;;;;;;50.78;22.88;;;13.70;99.90;;;;;;4163302;28;20045;-86
2021/07/01 00:02:52;;;;;;;33.88;19.45;;;13.70;99.90;;;;;;4163655;28;20030;-88
2021/07/01 00:04:55;;;;;;;40.70;20.52;;;13.80;99.90;;;;;;4163482;28;20029;-89
2021/07/01 00:06:56;;;;;;;38.65;21.58;;;13.80;99.90;;;;;;4163082;28;20120;-88
2021/07/01 00:08:56;;;;;;;34.33;18.45;;;13.70;99.90;;;;;;4163422;28;20373;-90
2021/07/01 00:11:08;;;;;;;41.85;20.15;;;13.70;99.90;;;;;;4162951;28;20052;-88
2021/07/01 00:13:09;;;;;;;37.03;21.67;;;13.70;99.90;;;;;;4159328;28;20395;-89
2021/07/01 00:15:13;;;;;;;48.97;22.23;;;13.70;99.90;;;;;;4164806;28;20033;-89
2021/07/01 00:17:22;;;;;;;45.25;22.15;;;13.60;99.90;;;;;;4157957;28;20025;-87
2021/07/01 00:19:24;;;;;;;40.10;20.92;;;13.60;99.90;;;;;;4161649;28;20041;-86
2021/07/01 00:21:41;;;;;;;37.22;20.17;;;13.70;99.90;;;;;;4160525;28;20442;-88
2021/07/01 00:23:55;;;;;;;46.58;21.40;;;13.70;99.90;;;;;;4162887;28;20040;-89
2021/07/01 00:25:55;;;;;;;45.25;22.38;;;13.70;99.90;;;;;;4164318;28;20033;-89
2021/07/01 00:27:59;;;;;;;38.03;19.77;;;13.70;99.90;;;;;;4151148;28;20114;-88
2021/07/01 00:29:59;;;;;;;43.97;19.23;;;13.60;99.90;;;;;;4163423;28;20429;-88
2021/07/01 00:32:14;;;;;;;39.35;19.13;;;13.70;99.90;;;;;;4163056;28;20086;-88
2021/07/01 00:34:16;;;;;;;40.38;20.40;;;13.70;99.90;;;;;;4162921;28;20025;-87
2021/07/01 00:36:23;;;;;;;42.40;20.20;;;13.70;99.90;;;;;;4162292;28;20057;-88
2021/07/01 00:38:26;;;;;;;36.25;20.05;;;13.60;99.90;;;;;;4165887;28;20120;-88
2021/07/01 00:40:26;;;;;;;42.75;19.75;;;13.60;99.90;;;;;;4163164;28;20121;-86
2021/07/01 00:42:36;;;;;;;37.30;18.77;;;13.60;99.90;;;;;;4162794;28;20444;-87
2021/07/01 00:44:44;;;;;;;32.92;15.20;;;13.70;99.90;;;;;;4163700;28;20128;-86
2021/07/01 00:46:47;;;;;;;40.33;18.02;;;13.70;99.90;;;;;;4162691;28;20128;-87
2021/07/01 00:48:48;;;;;;;33.92;14.15;;;13.70;99.90;;;;;;4163592;28;20030;-86
2021/07/01 00:50:53;;;;;;;29.58;17.55;;;13.70;99.90;;;;;;4162892;28;20113;-87
2021/07/01 00:53:00;;;;;;;42.08;19.15;;;13.70;99.90;;;;;;4163636;28;20060;-86
2021/07/01 00:55:02;;;;;;;43.13;17.52;;;13.70;99.90;;;;;;4162864;28;20037;-88
2021/07/01 00:57:04;;;;;;;32.95;15.05;;;13.70;99.90;;;;;;4163586;28;20033;-86
2021/07/01 00:59:07;;;;;;;30.70;16.42;;;13.60;99.90;;;;;;4162263;28;20362;-86
2021/07/01 01:01:09;;;;;;;;;;;13.70;99.90;;;;;;4162418;28;20026;-87
2021/07/01 01:03:09;;;;;;;24.40;14.60;;;13.60;99.90;;;;;;4162620;28;19910;-87
2021/07/01 01:05:10;;;;;;;20.85;13.23;;;13.70;99.90;;;;;;4158781;28;20038;-86
2021/07/01 01:07:11;;;;;;;24.83;14.90;;;13.70;99.90;;;;;;4162231;28;20107;-88
2021/07/01 01:09:14;;;;;;;29.67;14.13;;;13.60;99.90;;;;;;4163238;28;20057;-87
2021/07/01 01:11:25;;;;;;;25.92;13.05;;;13.50;99.90;;;;;;4162464;28;20044;-86
2021/07/01 01:13:27;;;;;;;26.48;13.95;;;13.60;99.90;;;;;;4159413;28;20061;-86
2021/07/01 01:15:30;;;;;;;28.50;14.00;;;13.60;99.90;;;;;;4160896;28;20034;-84
2021/07/01 01:17:32;;;;;;;24.45;13.65;;;13.60;99.90;;;;;;4162103;28;20496;-87
2021/07/01 01:19:33;;;;;;;30.02;14.77;;;13.60;99.90;;;;;;4158177;28;20043;-87
2021/07/01 01:21:36;;;;;;;26.67;13.63;;;13.50;99.90;;;;;;4163365;28;20049;-87
2021/07/01 01:23:37;;;;;;;29.23;13.40;;;13.60;99.90;;;;;;4162375;28;20475;-88
2021/07/01 01:25:39;;;;;;;23.92;13.02;;;13.60;99.90;;;;;;4162487;28;20037;-87
2021/07/01 01:27:41;;;;;;;19.05;11.02;;;13.50;99.90;;;;;;4159142;28;20040;-86
2021/07/01 01:29:52;;;;;;;15.57;11.35;;;13.60;99.90;;;;;;4163449;28;20485;-88
2021/07/01 01:31:58;;;;;;;23.33;10.25;;;13.70;99.90;;;;;;4164044;28;20037;-87
2021/07/01 01:34:06;;;;;;;19.25;10.65;;;13.60;99.90;;;;;;4162762;28;20033;-88
2021/07/01 01:36:19;;;;;;;18.02;13.38;;;13.50;99.90;;;;;;4161568;28;20177;-87
2021/07/01 01:38:29;;;;;;;20.67;12.52;;;13.40;99.90;;;;;;4162183;28;20033;-87
2021/07/01 01:40:32;;;;;;;22.10;12.38;;;13.40;99.90;;;;;;4162138;28;20459;-87
2021/07/01 01:42:32;;;;;;;22.95;11.68;;;13.40;99.90;;;;;;4162708;28;20044;-85
2021/07/01 01:44:33;;;;;;;19.52;12.18;;;13.30;99.90;;;;;;4163330;28;20041;-88
2021/07/01 01:46:36;;;;;;;27.00;13.48;;;13.30;99.90;;;;;;4162286;28;20053;-86
2021/07/01 01:48:36;;;;;;;32.63;12.43;;;13.30;99.90;;;;;;4164114;28;20049;-87
2021/07/01 01:50:38;;;;;;;24.33;12.88;;;13.20;99.90;;;;;;4162147;28;20390;-87
2021/07/01 01:52:47;;;;;;;33.67;12.93;;;13.20;99.90;;;;;;4163261;28;20037;-87
2021/07/01 01:54:50;;;;;;;20.67;10.65;;;13.30;99.90;;;;;;4163465;28;20048;-86
2021/07/01 01:56:50;;;;;;;27.40;12.68;;;13.30;99.90;;;;;;4162403;28;20030;-86
2021/07/01 01:58:53;;;;;;;32.63;14.13;;;13.30;99.90;;;;;;4161650;28;20550;-87
2021/07/01 02:01:00;;;;;;;29.58;14.15;;;13.20;99.90;;;;;;4161912;28;20060;-87
2021/07/01 02:03:01;;;;;;;35.42;14.15;;;13.20;99.90;;;;;;4161198;28;20029;-84
2021/07/01 02:05:09;;;;;;;26.77;14.27;;;13.20;99.90;;;;;;4178307;28;20027;-87
2021/07/01 02:07:10;;;;;;;27.98;14.18;;;13.30;99.90;;;;;;4161656;28;20033;-85
2021/07/01 02:09:17;;;;;;;36.85;15.63;;;13.20;99.90;;;;;;4163429;28;20084;-85
2021/07/01 02:11:24;;;;;;;32.25;15.40;;;13.10;99.90;;;;;;4162472;28;20379;-86
2021/07/01 02:13:25;;;;;;;37.92;15.85;;;13.20;99.90;;;;;;4161092;28;20030;-85
2021/07/01 02:15:26;;;;;;;40.65;16.45;;;13.20;99.90;;;;;;4161732;28;20428;-86
2021/07/01 02:17:27;;;;;;;33.80;14.45;;;13.20;99.90;;;;;;4162219;28;20075;-86
2021/07/01 02:19:34;;;;;;;33.42;14.98;;;13.20;99.90;;;;;;4162889;28;20041;-86
2021/07/01 02:21:42;;;;;;;33.45;14.20;;;13.20;99.90;;;;;;4162186;28;20412;-89
2021/07/01 02:23:43;;;;;;;34.70;15.05;;;13.30;99.90;;;;;;4161173;28;20041;-89
2021/07/01 02:25:44;;;;;;;31.45;15.25;;;13.30;99.90;;;;;;4162377;28;20033;-87
2021/07/01 02:27:50;;;;;;;38.13;14.73;;;13.30;99.90;;;;;;4165469;28;20057;-87
2021/07/01 02:29:52;;;;;;;26.67;13.32;;;13.30;99.90;;;;;;4164867;28;20507;-87
2021/07/01 02:31:54;;;;;;;31.55;14.63;;;13.30;99.90;;;;;;4165279;28;20033;-88
2021/07/01 02:33:55;;;;;;;30.50;14.10;;;13.20;99.90;;;;;;4164504;28;20025;-87
2021/07/01 02:35:56;;;;;;;31.45;14.95;;;13.20;99.90;;;;;;4164598;28;20113;-87
2021/07/01 02:37:57;;;;;;;32.83;16.20;;;13.20;99.90;;;;;;4164480;28;20096;-88
2021/07/01 02:40:12;;;;;;;37.33;14.00;;;13.20;99.90;;;;;;4166285;28;20029;-88
2021/07/01 02:42:15;;;;;;;35.85;15.90;;;13.20;99.90;;;;;;4165437;28;20036;-87
2021/07/01 02:44:17;;;;;;;32.20;14.13;;;13.20;99.90;;;;;;4163887;28;20046;-87
2021/07/01 02:46:18;;;;;;;31.13;15.00;;;13.20;99.90;;;;;;4164543;28;20033;-86
2021/07/01 02:48:21;;;;;;;29.52;13.93;;;13.10;99.90;;;;;;4165845;28;20096;-86
2021/07/01 02:50:36;;;;;;;26.65;14.05;;;13.20;99.90;;;;;;4164169;28;20060;-85
2021/07/01 02:52:39;;;;;;;31.90;14.48;;;13.20;99.90;;;;;;4158956;28;20045;-86
2021/07/01 02:54:42;;;;;;;33.08;14.80;;;13.20;99.90;;;;;;4160351;28;20100;-86
2021/07/01 02:56:42;;;;;;;29.88;15.20;;;13.20;99.90;;;;;;4164121;28;20041;-87
2021/07/01 02:58:44;;;;;;;31.88;14.50;;;13.10;99.90;;;;;;4165770;28;20112;-87
2021/07/01 03:00:44;;;;;;;31.83;14.55;;;13.00;99.90;;;;;;4165908;28;20365;-87
2021/07/01 03:02:45;;;;;;;32.60;14.20;;;13.00;99.90;;;;;;4165627;28;20038;-88
2021/07/01 03:04:51;;;;;;;38.80;13.77;;;13.00;99.90;;;;;;4164930;28;20041;-86
2021/07/01 03:06:53;;;;;;;34.17;15.07;;;13.10;99.90;;;;;;4165439;28;20080;-86
2021/07/01 03:09:04;;;;;;;35.10;15.75;;;13.10;99.90;;;;;;4164360;28;20038;-87
2021/07/01 03:11:05;;;;;;;34.50;14.57;;;13.00;99.90;;;;;;4164075;28;20523;-88
2021/07/01 03:13:05;;;;;;;29.95;15.05;;;13.00;99.90;;;;;;4164359;28;20041;-89
2021/07/01 03:15:15;;;;;;;35.05;14.35;;;13.00;99.90;;;;;;4164101;28;20049;-87
2021/07/01 03:17:17;;;;;;;32.78;15.00;;;13.00;99.90;;;;;;4164042;28;20128;-88
2021/07/01 03:19:18;;;;;;;36.97;16.77;;;13.00;99.90;;;;;;4165858;28;20061;-88
2021/07/01 03:21:28;;;;;;;26.90;14.23;;;12.90;99.90;;;;;;4163974;28;20045;-88
2021/07/01 03:23:43;;;;;;;29.58;15.32;;;12.90;99.90;;;;;;4165439;28;20463;-87
2021/07/01 03:25:44;;;;;;;36.78;15.80;;;13.00;99.90;;;;;;4164286;28;20029;-89
2021/07/01 03:27:49;;;;;;;42.05;16.38;;;13.00;99.90;;;;;;4165547;28;20036;-88
2021/07/01 03:29:50;;;;;;;35.40;15.57;;;12.90;99.90;;;;;;4163977;28;20042;-89
2021/07/01 03:31:52;;;;;;;32.00;15.40;;;12.90;99.90;;;;;;4163735;28;20366;-87
2021/07/01 03:33:52;;;;;;;38.83;15.95;;;12.90;99.90;;;;;;4164241;28;20470;-88
2021/07/01 03:35:53;;;;;;;30.85;14.70;;;13.00;99.90;;;;;;4164898;28;20048;-88
2021/07/01 03:37:55;;;;;;;33.50;15.63;;;13.00;99.90;;;;;;4163289;28;20041;-88
2021/07/01 03:39:56;;;;;;;37.80;15.65;;;13.00;99.90;;;;;;4164090;28;20444;-88
2021/07/01 03:42:00;;;;;;;31.50;12.90;;;13.00;99.90;;;;;;4165008;28;20073;-88
2021/07/01 03:44:01;;;;;;;37.10;14.35;;;13.10;99.90;;;;;;4172272;28;20369;-84
2021/07/01 03:46:14;;;;;;;37.97;15.40;;;13.10;99.90;;;;;;4165901;28;20032;-86
2021/07/01 03:48:17;;;;;;;33.10;15.00;;;13.10;99.90;;;;;;4165013;28;20040;-88
2021/07/01 03:50:17;;;;;;;41.85;15.90;;;13.10;99.90;;;;;;4163070;28;20021;-88
2021/07/01 03:52:18;;;;;;;37.13;14.48;;;13.10;99.90;;;;;;4163457;28;20496;-88
2021/07/01 03:54:18;;;;;;;27.80;14.30;;;13.00;99.90;;;;;;4163097;28;20042;-86
2021/07/01 03:56:19;;;;;;;32.63;15.23;;;13.00;99.90;;;;;;4163670;28;20034;-88
2021/07/01 03:58:23;;;;;;;41.55;17.00;;;13.00;99.90;;;;;;4162934;28;20033;-87
2021/07/01 04:00:32;;;;;;;30.80;16.08;;;13.00;99.90;;;;;;4163366;28;20523;-87
2021/07/01 04:02:42;;;;;;;33.45;16.10;;;13.00;99.90;;;;;;4163973;28;20037;-87
2021/07/01 04:04:43;;;;;;;33.97;15.77;;;13.00;99.90;;;;;;4164652;28;20064;-87
2021/07/01 04:06:44;;;;;;;33.28;16.42;;;13.00;99.90;;;;;;4164690;28;20037;-86
2021/07/01 04:08:45;;;;;;;30.55;14.75;;;13.00;99.90;;;;;;4164756;28;20045;-88
2021/07/01 04:10:47;;;;;;;33.38;15.90;;;13.00;99.90;;;;;;4162874;28;20042;-86
2021/07/01 04:12:48;;;;;;;26.00;15.43;;;13.00;99.90;;;;;;4163036;28;20033;-88
2021/07/01 04:14:48;;;;;;;43.88;17.80;;;13.00;99.90;;;;;;4162553;28;20087;-87
2021/07/01 04:16:49;;;;;;;31.58;15.02;;;13.00;99.90;;;;;;4163544;28;20052;-88
2021/07/01 04:19:00;;;;;;;37.08;15.68;;;13.00;99.90;;;;;;4162707;28;20533;-88
2021/07/01 04:21:00;;;;;;;34.88;16.23;;;13.00;99.90;;;;;;4162863;28;20060;-88
2021/07/01 04:23:10;;;;;;;28.20;14.18;;;13.00;99.90;;;;;;4163647;28;20030;-87
2021/07/01 04:25:11;;;;;;;30.65;15.52;;;13.10;99.90;;;;;;4164113;28;20033;-87
2021/07/01 04:27:12;;;;;;;37.03;16.38;;;13.10;99.90;;;;;;4163256;28;20069;-88
2021/07/01 04:29:14;;;;;;;32.90;16.02;;;13.10;99.90;;;;;;4164548;28;20033;-88
2021/07/01 04:31:18;;;;;;;34.67;14.70;;;13.10;99.90;;;;;;4163886;28;20049;-89
2021/07/01 04:33:19;;;;;;;32.38;15.75;;;13.20;99.90;;;;;;4165715;28;20040;-87
2021/07/01 04:35:21;;;;;;;30.13;14.88;;;13.20;99.90;;;;;;4165689;28;20029;-89
2021/07/01 04:37:22;;;;;;;34.45;15.65;;;13.20;99.90;;;;;;4163949;28;20036;-88
2021/07/01 04:39:23;;;;;;;29.35;14.80;;;13.10;99.90;;;;;;4162883;28;20025;-87
2021/07/01 04:41:24;;;;;;;28.88;14.23;;;13.10;99.90;;;;;;4162763;28;20033;-87
2021/07/01 04:43:24;;;;;;;33.42;16.05;;;13.10;99.90;;;;;;4162120;28;20500;-87
2021/07/01 04:45:25;;;;;;;39.63;15.85;;;13.20;99.90;;;;;;4155779;28;20790;-87
2021/07/01 04:47:32;;;;;;;31.85;14.80;;;13.10;99.90;;;;;;4163202;28;20025;-86
2021/07/01 04:49:33;;;;;;;32.80;15.68;;;13.10;99.90;;;;;;4162992;28;20033;-87
2021/07/01 04:51:33;;;;;;;35.20;13.63;;;13.00;99.90;;;;;;4164068;28;20120;-86
2021/07/01 04:53:40;;;;;;;31.25;14.18;;;13.10;99.90;;;;;;4162593;28;20041;-87
2021/07/01 04:55:41;;;;;;;29.67;14.77;;;13.20;99.90;;;;;;4162740;28;20037;-86
2021/07/01 04:57:42;;;;;;;30.73;15.82;;;13.20;99.90;;;;;;4163030;28;20049;-87
2021/07/01 04:59:46;;;;;;;31.20;15.90;;;13.10;99.90;;;;;;4163788;28;20408;-88
2021/07/01 05:01:48;;;;;;;34.58;14.95;;;13.10;99.90;;;;;;4162892;28;20030;-88
2021/07/01 05:03:49;;;;;;;31.30;16.00;;;13.10;99.90;;;;;;4172680;28;20034;-87
2021/07/01 05:05:51;;;;;;;29.75;15.43;;;13.10;99.90;;;;;;4179285;28;20040;-87
2021/07/01 05:07:54;;;;;;;34.67;14.40;;;13.10;99.90;;;;;;4161816;28;20030;-86
2021/07/01 05:09:55;;;;;;;33.40;15.40;;;13.00;99.90;;;;;;4162823;28;20041;-87
2021/07/01 05:11:55;;;;;;;37.92;15.45;;;13.00;99.90;;;;;;4162888;28;20040;-87
2021/07/01 05:14:03;;;;;;;35.63;15.25;;;13.10;99.90;;;;;;4162801;28;20473;-87
2021/07/01 05:16:05;;;;;;;24.70;13.40;;;13.10;99.90;;;;;;4163414;28;20542;-86
2021/07/01 05:18:06;;;;;;;37.03;15.43;;;13.20;99.90;;;;;;4162842;28;20046;-86
2021/07/01 05:20:07;;;;;;;32.95;15.88;;;13.20;99.90;;;;;;4162178;28;20067;-86
2021/07/01 05:22:08;;;;;;;37.88;16.67;;;13.20;99.90;;;;;;4163902;28;20080;-86
2021/07/01 05:24:09;;;;;;;30.45;14.77;;;13.20;99.90;;;;;;4162271;28;20536;-83
2021/07/01 05:26:09;;;;;;;35.67;16.65;;;13.10;99.90;;;;;;4163109;28;20025;-88
2021/07/01 05:28:16;;;;;;;35.80;15.68;;;13.10;99.90;;;;;;4164330;28;20070;-88
2021/07/01 05:30:18;;;;;;;39.45;16.40;;;13.10;99.90;;;;;;4163743;28;20034;-86
2021/07/01 05:32:19;;;;;;;35.10;13.85;;;13.20;99.90;;;;;;4162610;28;20358;-88
2021/07/01 05:34:20;;;;;;;34.15;14.98;;;13.20;99.90;;;;;;4179288;28;20044;-87
2021/07/01 05:36:20;;;;;;;26.50;13.82;;;13.20;99.90;;;;;;4162272;28;20823;-88
2021/07/01 05:38:29;;;;;;;33.60;15.77;;;13.30;99.90;;;;;;4162501;28;20056;-86
2021/07/01 05:40:30;;;;;;;27.15;14.85;;;13.30;99.90;;;;;;4161315;28;20373;-83
2021/07/01 05:42:32;;;;;;;32.42;12.82;;;13.30;99.90;;;;;;4161795;28;20044;-85
2021/07/01 05:44:33;;;;;;;29.27;13.75;;;13.30;99.90;;;;;;4162718;28;20128;-84
2021/07/01 05:46:33;;;;;;;29.00;14.55;;;13.40;99.90;;;;;;4161916;28;20033;-85
2021/07/01 05:48:34;;;;;;;29.20;14.70;;;13.40;99.90;;;;;;4161679;28;20049;-83
2021/07/01 05:50:44;;;;;;;25.35;12.43;;;13.40;99.90;;;;;;4161689;28;20033;-85
2021/07/01 05:52:49;;;;;;;22.50;14.07;;;13.40;99.90;;;;;;4161372;28;20096;-84
2021/07/01 05:54:57;;;;;;;25.95;10.77;;;13.30;99.90;;;;;;4162508;28;20026;-84
2021/07/01 05:56:59;;;;;;;20.98;11.48;;;13.30;99.90;;;;;;4160644;28;20033;-86
2021/07/01 05:58:59;;;;;;;22.75;11.65;;;13.50;99.90;;;;;;4161843;28;20030;-83
2021/07/01 06:01:00;;;;;;;19.92;11.77;;;13.40;99.90;;;;;;4161878;28;20499;-86
2021/07/01 06:03:01;;;;;;;21.67;12.57;;;13.40;99.90;;;;;;4165049;28;20362;-85
2021/07/01 06:05:02;;;;;;;31.17;13.32;;;13.50;99.90;;;;;;4164862;28;20041;-87
2021/07/01 06:07:05;;;;;;;24.50;12.35;;;13.50;99.90;;;;;;4164258;28;20120;-87
2021/07/01 06:09:06;;;;;;;;;;;13.60;99.90;;;;;;4166247;28;20060;-82
2021/07/01 06:11:07;;;;;;;22.02;11.68;;;13.60;99.90;;;;;;4164550;28;20337;-86
2021/07/01 06:13:11;;;;;;;22.27;11.48;;;13.70;99.90;;;;;;4164668;28;20033;-85
2021/07/01 06:15:12;;;;;;;30.88;13.93;;;13.70;99.90;;;;;;4163577;28;20037;-84
2021/07/01 06:17:19;;;;;;;22.40;12.45;;;13.70;99.90;;;;;;4166232;28;20044;-85
2021/07/01 06:19:21;;;;;;;21.67;12.68;;;13.70;99.90;;;;;;4165142;28;20112;-83
2021/07/01 06:21:23;;;;;;;25.73;14.32;;;13.70;99.90;;;;;;4165802;28;20519;-84
2021/07/01 06:23:25;;;;;;;27.00;13.23;;;13.80;99.90;;;;;;4164045;28;20380;-84
2021/07/01 06:25:26;;;;;;;31.45;13.13;;;13.80;99.90;;;;;;4174426;28;20041;-82
2021/07/01 06:27:38;;;;;;;23.88;12.82;;;13.90;99.90;;;;;;4163300;28;20045;-82
2021/07/01 06:29:40;;;;;;;28.17;14.32;;;13.90;99.90;;;;;;4180778;28;20079;-84
2021/07/01 06:31:41;;;;;;;35.22;14.93;;;13.80;99.90;;;;;;4164408;28;20112;-83
2021/07/01 06:33:45;;;;;;;32.20;14.02;;;13.80;99.90;;;;;;4164872;28;20057;-83
2021/07/01 06:35:52;;;;;;;33.53;13.43;;;13.90;99.90;;;;;;4165489;28;20037;-82
2021/07/01 06:37:57;;;;;;;29.80;14.82;;;14.00;99.90;;;;;;4160886;28;20044;-82
2021/07/01 06:40:00;;;;;;;30.85;14.27;;;14.10;99.90;;;;;;4164481;28;20053;-83
2021/07/01 06:42:02;;;;;;;31.40;14.10;;;14.10;99.90;;;;;;4160200;28;20037;-83
2021/07/01 06:44:07;;;;;;;32.65;13.95;;;14.20;99.90;;;;;;4164943;28;20883;-82
2021/07/01 06:46:08;;;;;;;27.08;14.15;;;14.20;99.90;;;;;;4165005;28;20071;-81
2021/07/01 06:48:11;;;;;;;31.10;15.45;;;14.30;99.90;;;;;;4164135;28;20025;-82
2021/07/01 06:50:13;;;;;;;29.98;14.85;;;14.40;99.90;;;;;;4150265;28;20089;-82
2021/07/01 06:52:14;;;;;;;24.88;13.07;;;14.40;99.90;;;;;;4163117;28;20065;-81
2021/07/01 06:54:17;;;;;;;32.70;16.10;;;14.40;99.90;;;;;;4163746;28;20022;-83
2021/07/01 06:56:23;;;;;;;27.02;15.73;;;14.20;99.90;;;;;;4162693;28;20531;-82
2021/07/01 06:58:24;;;;;;;21.50;12.52;;;14.20;99.90;;;;;;4163610;28;20097;-82
2021/07/01 07:00:25;;;;;;;24.80;14.15;;;14.30;99.90;;;;;;4161165;28;20048;-82
2021/07/01 07:02:30;;;;;;;27.77;15.18;;;14.30;99.90;;;;;;4163602;28;20139;-81
2021/07/01 07:04:33;;;;;;;28.13;15.23;;;14.30;99.90;;;;;;4164891;28;20052;-83
2021/07/01 07:06:36;;;;;;;28.55;14.15;;;14.20;99.90;;;;;;4161868;28;20484;-82
2021/07/01 07:08:37;;;;;;;29.77;15.20;;;14.20;99.90;;;;;;4165057;28;20033;-82
2021/07/01 07:10:40;;;;;;;25.92;12.43;;;14.20;99.90;;;;;;4164050;28;20167;-82
2021/07/01 07:12:44;;;;;;;28.98;15.40;;;14.20;99.90;;;;;;4164636;28;20033;-82
2021/07/01 07:14:44;;;;;;;25.10;14.45;;;14.20;99.90;;;;;;4165111;28;20432;-81
2021/07/01 07:16:48;;;;;;;22.80;12.55;;;14.30;99.90;;;;;;4163999;28;20235;-83
2021/07/01 07:18:50;;;;;;;28.92;13.35;;;14.30;99.90;;;;;;4163791;28;20037;-82
2021/07/01 07:21:01;;;;;;;23.80;12.82;;;14.30;99.90;;;;;;4164811;28;20212;-83
2021/07/01 07:23:05;;;;;;;26.25;13.27;;;14.30;99.90;;;;;;4163365;28;20412;-83
2021/07/01 07:25:10;;;;;;;26.52;14.68;;;14.30;99.90;;;;;;4164832;28;20045;-83
2021/07/01 07:27:11;;;;;;;23.33;13.45;;;14.40;99.90;;;;;;4147033;28;20045;-82
2021/07/01 07:29:16;;;;;;;29.42;14.45;;;14.30;99.90;;;;;;4169240;28;20033;-84
2021/07/01 07:31:29;;;;;;;21.20;13.10;;;14.40;99.90;;;;;;4163693;28;20062;-82
2021/07/01 07:33:30;;;;;;;20.20;13.30;;;14.40;99.90;;;;;;4163983;28;20029;-82
2021/07/01 07:35:32;;;;;;;26.63;14.63;;;14.40;99.90;;;;;;4158258;28;20060;-83
2021/07/01 07:37:35;;;;;;;26.23;12.98;;;14.50;99.90;;;;;;4164975;28;20457;-83
2021/07/01 07:39:36;;;;;;;29.20;14.15;;;14.60;99.90;;;;;;4163787;28;20021;-83
2021/07/01 07:41:37;;;;;;;29.30;13.68;;;14.60;99.90;;;;;;4180003;28;20488;-83
2021/07/01 07:43:39;;;;;;;22.75;13.50;;;14.70;99.90;;;;;;4163039;28;20135;-83
2021/07/01 07:45:41;;;;;;;25.23;13.20;;;14.80;99.90;;;;;;4179940;28;20439;-86
2021/07/01 07:47:42;;;;;;;23.90;13.00;;;14.90;99.90;;;;;;4164717;28;20453;-81
2021/07/01 07:49:49;;;;;;;22.30;13.82;;;15.00;99.90;;;;;;4162779;28;20067;-84
2021/07/01 07:51:55;;;;;;;26.25;13.35;;;15.20;99.90;;;;;;4165045;28;20121;-85
2021/07/01 07:54:05;;;;;;;26.55;12.38;;;15.30;99.90;;;;;;4165001;28;20033;-84
2021/07/01 07:56:09;;;;;;;26.00;13.45;;;15.50;99.90;;;;;;4164173;28;20037;-84
2021/07/01 07:58:13;;;;;;;27.85;13.77;;;15.60;99.90;;;;;;4164557;28;20021;-86
2021/07/01 08:00:14;;;;;;;21.75;13.43;;;15.60;99.90;;;;;;4163513;28;20560;-86
2021/07/01 08:02:48;;;;;;;21.58;13.95;;;15.50;99.90;;;;;;4163912;28;20084;-86
2021/07/01 08:04:49;;;;;;;27.02;13.43;;;15.40;99.90;;;;;;4159794;28;20033;-85
2021/07/01 08:06:53;;;;;;;23.58;11.40;;;15.40;99.90;;;;;;4163058;28;20080;-86
2021/07/01 08:08:57;;;;;;;31.80;12.95;;;15.50;99.90;;;;;;4162737;28;20250;-85
2021/07/01 08:11:07;;;;;;;32.30;14.10;;;15.40;99.90;;;;;;4159025;28;20029;-82
2021/07/01 08:13:08;;;;;;;31.73;15.10;;;15.30;99.90;;;;;;4159104;28;20025;-83
2021/07/01 08:15:14;;;;;;;30.85;14.07;;;15.20;99.90;;;;;;4163292;28;20056;-82
2021/07/01 08:17:16;;;;;;;27.35;14.73;;;15.20;99.90;;;;;;4163589;28;20033;-83
2021/07/01 08:19:19;;;;;;;31.27;15.77;;;15.10;99.90;;;;;;4162167;28;20385;-83
2021/07/01 08:21:20;;;;;;;26.73;14.73;;;15.10;99.90;;;;;;4161053;28;20149;-82
2021/07/01 08:23:21;;;;;;;29.90;15.57;;;15.00;99.90;;;;;;4162729;28;20038;-80
2021/07/01 08:25:25;;;;;;;28.83;15.07;;;15.00;99.90;;;;;;4160530;28;20032;-80
2021/07/01 08:27:27;;;;;;;31.13;15.93;;;15.00;99.90;;;;;;4162501;28;20041;-81
2021/07/01 08:29:28;;;;;;;35.05;15.48;;;15.10;99.90;;;;;;4161915;28;20501;-81
2021/07/01 08:31:30;;;;;;;35.60;15.55;;;15.10;99.90;;;;;;4161951;28;20059;-80
2021/07/01 08:33:36;;;;;;;32.55;16.23;;;15.10;99.90;;;;;;4163076;28;20048;-81
2021/07/01 08:35:39;;;;;;;43.58;14.13;;;15.20;99.90;;;;;;4163542;28;20033;-83
2021/07/01 08:37:46;;;;;;;27.80;14.02;;;15.30;99.90;;;;;;4163646;28;20133;-83
2021/07/01 08:39:49;;;;;;;32.65;13.45;;;15.30;99.90;;;;;;4161736;28;20108;-82
2021/07/01 08:41:56;;;;;;;42.13;15.23;;;15.40;99.90;;;;;;4162217;28;20025;-81
2021/07/01 08:43:58;;;;;;;38.03;14.07;;;15.50;99.90;;;;;;4163167;28;20370;-83
2021/07/01 08:46:14;;;;;;;31.83;15.65;;;15.60;99.90;;;;;;4161657;28;20029;-80
2021/07/01 08:48:25;;;;;;;29.75;16.02;;;15.80;99.90;;;;;;4161504;28;20108;-83
2021/07/01 08:50:35;;;;;;;39.47;15.55;;;15.90;99.90;;;;;;4148197;28;20025;-81
2021/07/01 08:52:47;;;;;;;27.90;15.32;;;16.00;99.90;;;;;;4162863;28;20046;-84
2021/07/01 08:54:56;;;;;;;33.35;14.73;;;16.00;99.90;;;;;;4162697;28;20025;-84
2021/07/01 08:56:57;;;;;;;36.75;13.80;;;15.90;99.90;;;;;;4162808;28;20473;-85
2021/07/01 08:59:05;;;;;;;34.00;14.95;;;16.00;99.90;;;;;;4168891;28;20025;-86
2021/07/01 09:01:05;;;;;;;28.10;14.65;;;15.90;99.90;;;;;;4157848;28;20028;-84
2021/07/01 09:03:08;;;;;;;29.90;14.05;;;15.90;99.90;;;;;;4162317;28;20412;-82
2021/07/01 09:05:17;;;;;;;33.17;14.55;;;15.90;99.90;;;;;;4150389;28;20048;-84
2021/07/01 09:07:25;;;;;;;31.10;14.32;;;15.90;99.90;;;;;;4145964;28;20029;-85
2021/07/01 09:09:33;;;;;;;34.58;14.70;;;15.90;99.90;;;;;;4163721;28;20033;-84
2021/07/01 09:11:37;;;;;;;24.15;13.00;;;16.00;99.90;;;;;;4161868;28;20033;-83
2021/07/01 09:13:45;;;;;;;29.45;13.30;;;16.10;99.90;;;;;;4163108;28;20033;-85
2021/07/01 09:15:52;;;;;;;30.15;13.68;;;16.20;99.90;;;;;;4149472;28;20396;-81
2021/07/01 09:18:09;;;;;;;30.90;14.32;;;16.30;99.90;;;;;;4168480;28;20074;-82
2021/07/01 09:20:12;;;;;;;29.05;15.35;;;16.30;99.90;;;;;;4161709;28;20116;-82
2021/07/01 09:22:17;;;;;;;31.83;13.75;;;16.20;99.90;;;;;;4163082;28;20072;-83
2021/07/01 09:24:22;;;;;;;26.40;11.50;;;16.10;99.90;;;;;;4162286;28;20484;-81
2021/07/01 09:26:25;;;;;;;37.78;14.52;;;16.20;99.90;;;;;;4161603;28;20029;-82
2021/07/01 09:28:28;;;;;;;34.47;14.07;;;16.00;99.90;;;;;;4163561;28;20045;-82
2021/07/01 09:30:32;;;;;;;28.03;13.77;;;16.00;99.90;;;;;;4163525;28;20034;-83
2021/07/01 09:32:35;;;;;;;41.72;13.68;;;16.00;99.90;;;;;;4161523;28;20316;-82
2021/07/01 09:34:37;;;;;;;38.38;14.93;;;16.00;99.90;;;;;;4161615;28;20509;-83
2021/07/01 09:36:41;;;;;;;32.28;13.40;;;16.00;99.90;;;;;;4164409;28;20029;-83
2021/07/01 09:38:44;;;;;;;28.17;13.07;;;16.00;99.90;;;;;;4165834;28;20220;-83
2021/07/01 09:40:48;;;;;;;32.45;14.20;;;16.00;99.90;;;;;;4164629;28;20034;-80
2021/07/01 09:42:59;;;;;;;34.00;13.80;;;16.00;99.90;;;;;;4165243;28;20048;-83
2021/07/01 09:45:10;;;;;;;32.50;14.35;;;16.00;99.90;;;;;;4165004;28;20041;-83
2021/07/01 09:47:12;;;;;;;28.30;13.73;;;15.90;99.90;;;;;;4164638;28;20076;-84
2021/07/01 09:49:19;;;;;;;28.52;13.40;;;15.90;99.90;;;;;;4166771;28;20091;-83
2021/07/01 09:51:20;;;;;;;35.17;14.40;;;15.90;99.90;;;;;;4164904;28;20021;-83
2021/07/01 09:53:30;;;;;;;29.17;13.23;;;15.90;99.90;;;;;;4166293;28;20060;-82
2021/07/01 09:55:33;;;;;;;36.03;16.33;;;15.90;99.90;;;;;;4164662;28;20120;-84
2021/07/01 09:57:38;;;;;;;21.40;13.40;;;16.00;99.90;;;;;;4164673;28;20034;-81
2021/07/01 09:59:49;;;;;;;27.40;13.25;;;16.00;99.90;;;;;;4166303;28;20060;-82
2021/07/01 10:01:50;;;;;;;28.58;10.57;;;16.10;99.90;;;;;;4166259;28;20026;-83
2021/07/01 10:03:53;;;;;;;28.35;13.45;;;16.10;99.90;;;;;;4161871;28;20030;-83
2021/07/01 10:05:53;;;;;;;31.05;13.52;;;16.00;99.90;;;;;;4164236;28;20064;-80
2021/07/01 10:07:55;;;;;;;27.88;12.52;;;15.90;99.90;;;;;;4164299;28;20037;-84
2021/07/01 10:09:57;;;;;;;24.92;12.18;;;15.90;99.90;;;;;;4162910;28;20684;-82
2021/07/01 10:12:26;;;;;;;25.00;12.27;;;16.00;99.90;;;;;;4164381;28;20037;-82
2021/07/01 10:14:40;;;;;;;25.95;12.57;;;16.00;99.90;;;;;;4179015;28;20490;-83
2021/07/01 10:16:41;;;;;;;30.75;12.93;;;16.00;99.90;;;;;;4165649;28;20357;-82
2021/07/01 10:18:43;;;;;;;24.20;13.38;;;16.00;99.90;;;;;;4165904;28;20028;-82
2021/07/01 10:20:48;;;;;;;25.63;11.75;;;16.00;99.90;;;;;;4159047;28;20144;-80
2021/07/01 10:22:49;;;;;;;28.92;10.95;;;16.20;99.90;;;;;;4164121;28;20079;-82
2021/07/01 10:24:58;;;;;;;23.08;11.55;;;16.20;99.90;;;;;;4180449;28;20101;-83
2021/07/01 10:27:01;;;;;;;30.02;12.63;;;16.30;99.90;;;;;;4160933;28;20034;-82
2021/07/01 10:29:03;;;;;;;25.08;12.50;;;16.50;99.90;;;;;;4164505;28;20201;-82